Ogden, Arkansas
Current Conditions -  °F | °C
As of 4:53 AM on Friday 28 Nov 2014 (Local Time) from KTXK Reporting Station
Clear Clear  
Wind Chill: -1°   Ceiling: Unl
Heat Index:   Visibility: 10mi
Dew Point:   Wind: 8mph
Humidity: 82%   Direction: 170°S
Pressure: 30.35"   Gusts: NA
Location:  33.58°N, 94.04°W
Report Text: KTXK 281053Z AUTO 17007KT 10SM CLR 03/00 A3035 RMK AO2 SLP279 T00280000
Loading
Personal Weather Stations






























Interactive Weather Map New forecast layout! Learn more

10-Day Weather Forecast

Advertisements
Track Severe Weather on mobile